sensor_id;sensor_type;location;lat;lon;timestamp;temperature;humidity
31597;DHT22;18201;50.978;7.034;2022-09-03T00:07:16;16.80;92.00
31597;DHT22;18201;50.978;7.034;2022-09-03T00:08:24;16.70;92.20
31597;DHT22;18201;50.978;7.034;2022-09-03T00:09:31;16.70;92.30
31597;DHT22;18201;50.978;7.034;2022-09-03T00:10:41;16.70;92.70
31597;DHT22;18201;50.978;7.034;2022-09-03T00:11:49;16.70;92.70
31597;DHT22;18201;50.978;7.034;2022-09-03T00:12:56;16.70;92.70
31597;DHT22;18201;50.978;7.034;2022-09-03T00:14:04;16.60;92.80
31597;DHT22;18201;50.978;7.034;2022-09-03T00:15:09;16.60;93.20
31597;DHT22;18201;50.978;7.034;2022-09-03T00:16:14;16.60;93.10
31597;DHT22;18201;50.978;7.034;2022-09-03T00:17:20;16.60;93.20
31597;DHT22;18201;50.978;7.034;2022-09-03T00:18:24;16.60;93.50
31597;DHT22;18201;50.978;7.034;2022-09-03T00:19:32;16.60;93.50
31597;DHT22;18201;50.978;7.034;2022-09-03T00:20:38;16.60;93.50
31597;DHT22;18201;50.978;7.034;2022-09-03T00:21:45;16.60;93.80
31597;DHT22;18201;50.978;7.034;2022-09-03T00:22:53;16.60;93.80
31597;DHT22;18201;50.978;7.034;2022-09-03T00:23:56;16.50;94.00
31597;DHT22;18201;50.978;7.034;2022-09-03T00:25:03;16.60;94.30
31597;DHT22;18201;50.978;7.034;2022-09-03T00:26:17;16.50;94.40
31597;DHT22;18201;50.978;7.034;2022-09-03T00:27:23;16.50;94.00
31597;DHT22;18201;50.978;7.034;2022-09-03T00:28:29;16.50;94.10
31597;DHT22;18201;50.978;7.034;2022-09-03T00:29:35;16.50;94.30
31597;DHT22;18201;50.978;7.034;2022-09-03T00:30:40;16.50;94.40
31597;DHT22;18201;50.978;7.034;2022-09-03T00:31:44;16.50;94.60
31597;DHT22;18201;50.978;7.034;2022-09-03T01:06:59;16.10;97.80
31597;DHT22;18201;50.978;7.034;2022-09-03T01:08:12;16.10;98.20
31597;DHT22;18201;50.978;7.034;2022-09-03T01:09:25;16.10;98.20
31597;DHT22;18201;50.978;7.034;2022-09-03T01:10:38;16.10;98.90
31597;DHT22;18201;50.978;7.034;2022-09-03T01:11:53;16.10;98.70
31597;DHT22;18201;50.978;7.034;2022-09-03T01:13:02;16.10;98.70
31597;DHT22;18201;50.978;7.034;2022-09-03T01:14:16;16.10;99.10
31597;DHT22;18201;50.978;7.034;2022-09-03T01:15:24;16.10;99.00
31597;DHT22;18201;50.978;7.034;2022-09-03T01:16:36;16.10;99.10
31597;DHT22;18201;50.978;7.034;2022-09-03T01:17:51;16.10;99.50
31597;DHT22;18201;50.978;7.034;2022-09-03T01:19:02;16.00;99.50
31597;DHT22;18201;50.978;7.034;2022-09-03T01:20:17;16.00;99.30
31597;DHT22;18201;50.978;7.034;2022-09-03T01:21:45;16.00;99.90
31597;DHT22;18201;50.978;7.034;2022-09-03T01:23:21;16.00;99.60
31597;DHT22;18201;50.978;7.034;2022-09-03T01:24:47;16.00;99.70
31597;DHT22;18201;50.978;7.034;2022-09-03T01:26:06;16.00;99.80
31597;DHT22;18201;50.978;7.034;2022-09-03T01:27:24;16.00;99.90
31597;DHT22;18201;50.978;7.034;2022-09-03T01:28:43;15.90;99.90
31597;DHT22;18201;50.978;7.034;2022-09-03T01:29:55;15.90;99.90
31597;DHT22;18201;50.978;7.034;2022-09-03T01:31:01;15.90;99.90
31597;DHT22;18201;50.978;7.034;2022-09-03T01:32:11;15.90;99.90
31597;DHT22;18201;50.978;7.034;2022-09-03T01:33:18;15.90;99.90
31597;DHT22;18201;50.978;7.034;2022-09-03T01:34:31;15.90;99.90
31597;DHT22;18201;50.978;7.034;2022-09-03T01:35:33;15.90;99.90
31597;DHT22;18201;50.978;7.034;2022-09-03T01:36:45;15.90;99.90
31597;DHT22;18201;50.978;7.034;2022-09-03T01:38:00;15.90;99.90
31597;DHT22;18201;50.978;7.034;2022-09-03T01:39:05;15.80;99.90
31597;DHT22;18201;50.978;7.034;2022-09-03T01:40:16;15.90;99.90
31597;DHT22;18201;50.978;7.034;2022-09-03T01:41:31;15.80;99.90
31597;DHT22;18201;50.978;7.034;2022-09-03T01:43:05;15.90;99.90
31597;DHT22;18201;50.978;7.034;2022-09-03T01:44:16;15.80;99.90
31597;DHT22;18201;50.978;7.034;2022-09-03T01:45:48;15.80;99.90
31597;DHT22;18201;50.978;7.034;2022-09-03T01:46:58;15.80;99.90
31597;DHT22;18201;50.978;7.034;2022-09-03T01:48:13;15.80;99.90
31597;DHT22;18201;50.978;7.034;2022-09-03T01:49:26;15.80;99.90
31597;DHT22;18201;50.978;7.034;2022-09-03T01:50:38;15.80;99.90
31597;DHT22;18201;50.978;7.034;2022-09-03T01:51:41;15.80;99.90
31597;DHT22;18201;50.978;7.034;2022-09-03T01:52:49;15.80;99.90
31597;DHT22;18201;50.978;7.034;2022-09-03T01:54:23;15.80;99.90
31597;DHT22;18201;50.978;7.034;2022-09-03T01:55:31;15.80;99.90
31597;DHT22;18201;50.978;7.034;2022-09-03T01:56:44;15.80;99.90
31597;DHT22;18201;50.978;7.034;2022-09-03T01:57:52;15.80;99.90
31597;DHT22;18201;50.978;7.034;2022-09-03T01:59:00;15.70;99.90
31597;DHT22;18201;50.978;7.034;2022-09-03T02:00:08;15.70;99.90
31597;DHT22;18201;50.978;7.034;2022-09-03T02:01:16;15.80;99.90
31597;DHT22;18201;50.978;7.034;2022-09-03T02:02:21;15.70;99.90
31597;DHT22;18201;50.978;7.034;2022-09-03T02:03:24;15.80;99.90
31597;DHT22;18201;50.978;7.034;2022-09-03T02:04:33;15.70;99.90
31597;DHT22;18201;50.978;7.034;2022-09-03T02:05:34;15.70;99.90
31597;DHT22;18201;50.978;7.034;2022-09-03T02:06:37;15.70;99.90
31597;DHT22;18201;50.978;7.034;2022-09-03T02:07:41;15.70;99.90
31597;DHT22;18201;50.978;7.034;2022-09-03T02:08:43;15.70;99.90
31597;DHT22;18201;50.978;7.034;2022-09-03T02:09:44;15.70;99.90
31597;DHT22;18201;50.978;7.034;2022-09-03T02:10:49;15.70;99.90
31597;DHT22;18201;50.978;7.034;2022-09-03T02:11:54;15.70;99.90
31597;DHT22;18201;50.978;7.034;2022-09-03T02:13:00;15.70;99.90
31597;DHT22;18201;50.978;7.034;2022-09-03T02:14:01;15.70;99.90
31597;DHT22;18201;50.978;7.034;2022-09-03T02:15:10;15.70;99.90
31597;DHT22;18201;50.978;7.034;2022-09-03T02:16:14;15.70;99.90
31597;DHT22;18201;50.978;7.034;2022-09-03T02:17:16;15.70;99.90
31597;DHT22;18201;50.978;7.034;2022-09-03T02:18:19;15.70;99.90
31597;DHT22;18201;50.978;7.034;2022-09-03T02:19:21;15.70;99.90
31597;DHT22;18201;50.978;7.034;2022-09-03T02:20:26;15.70;99.90
31597;DHT22;18201;50.978;7.034;2022-09-03T02:21:32;15.70;99.90
31597;DHT22;18201;50.978;7.034;2022-09-03T02:22:34;15.70;99.90
31597;DHT22;18201;50.978;7.034;2022-09-03T02:23:38;15.70;99.90
31597;DHT22;18201;50.978;7.034;2022-09-03T02:24:39;15.70;99.90
31597;DHT22;18201;50.978;7.034;2022-09-03T02:25:44;15.60;99.90
31597;DHT22;18201;50.978;7.034;2022-09-03T02:26:48;15.70;99.90
31597;DHT22;18201;50.978;7.034;2022-09-03T02:27:49;15.70;99.90
31597;DHT22;18201;50.978;7.034;2022-09-03T02:28:53;15.70;99.90
31597;DHT22;18201;50.978;7.034;2022-09-03T02:29:56;15.60;99.90
31597;DHT22;18201;50.978;7.034;2022-09-03T02:31:00;15.60;99.90
31597;DHT22;18201;50.978;7.034;2022-09-03T02:32:01;15.60;99.90
31597;DHT22;18201;50.978;7.034;2022-09-03T02:33:03;15.60;99.90
31597;DHT22;18201;50.978;7.034;2022-09-03T02:34:04;15.60;99.90
31597;DHT22;18201;50.978;7.034;2022-09-03T02:35:08;15.60;99.90
31597;DHT22;18201;50.978;7.034;2022-09-03T02:36:11;15.60;99.90
31597;DHT22;18201;50.978;7.034;2022-09-03T02:37:15;15.60;99.90
31597;DHT22;18201;50.978;7.034;2022-09-03T02:38:19;15.60;99.90
31597;DHT22;18201;50.978;7.034;2022-09-03T02:39:21;15.60;99.90
31597;DHT22;18201;50.978;7.034;2022-09-03T02:40:22;15.60;99.90
31597;DHT22;18201;50.978;7.034;2022-09-03T02:41:24;15.50;99.90
31597;DHT22;18201;50.978;7.034;2022-09-03T02:42:26;15.50;99.90
31597;DHT22;18201;50.978;7.034;2022-09-03T02:43:33;15.50;99.90
31597;DHT22;18201;50.978;7.034;2022-09-03T02:44:41;15.50;99.90
31597;DHT22;18201;50.978;7.034;2022-09-03T02:45:47;15.50;99.90
31597;DHT22;18201;50.978;7.034;2022-09-03T02:46:53;15.50;99.90
31597;DHT22;18201;50.978;7.034;2022-09-03T02:47:58;15.50;99.90
31597;DHT22;18201;50.978;7.034;2022-09-03T02:48:59;15.50;99.90
31597;DHT22;18201;50.978;7.034;2022-09-03T02:50:01;15.50;99.90
31597;DHT22;18201;50.978;7.034;2022-09-03T02:51:02;15.50;99.90
31597;DHT22;18201;50.978;7.034;2022-09-03T02:52:06;15.50;99.90
31597;DHT22;18201;50.978;7.034;2022-09-03T02:53:09;15.50;99.90
31597;DHT22;18201;50.978;7.034;2022-09-03T02:54:11;15.50;99.90
31597;DHT22;18201;50.978;7.034;2022-09-03T02:55:12;15.50;99.90
31597;DHT22;18201;50.978;7.034;2022-09-03T02:56:15;15.50;99.90
31597;DHT22;18201;50.978;7.034;2022-09-03T02:57:16;15.50;99.90
31597;DHT22;18201;50.978;7.034;2022-09-03T02:58:18;15.40;99.90
31597;DHT22;18201;50.978;7.034;2022-09-03T02:59:19;15.50;99.90
31597;DHT22;18201;50.978;7.034;2022-09-03T03:00:22;15.50;99.90
31597;DHT22;18201;50.978;7.034;2022-09-03T03:01:23;15.40;99.90
31597;DHT22;18201;50.978;7.034;2022-09-03T03:02:27;15.40;99.90
31597;DHT22;18201;50.978;7.034;2022-09-03T03:03:28;15.40;99.90
31597;DHT22;18201;50.978;7.034;2022-09-03T03:04:30;15.40;99.90
31597;DHT22;18201;50.978;7.034;2022-09-03T03:05:38;15.40;99.90
31597;DHT22;18201;50.978;7.034;2022-09-03T03:06:42;15.40;99.90
31597;DHT22;18201;50.978;7.034;2022-09-03T03:07:43;15.40;99.90
31597;DHT22;18201;50.978;7.034;2022-09-03T03:08:45;15.40;99.90
31597;DHT22;18201;50.978;7.034;2022-09-03T03:09:46;15.40;99.90
31597;DHT22;18201;50.978;7.034;2022-09-03T03:10:50;15.30;99.90
31597;DHT22;18201;50.978;7.034;2022-09-03T03:11:51;15.40;99.90
31597;DHT22;18201;50.978;7.034;2022-09-03T03:12:54;15.30;99.90
31597;DHT22;18201;50.978;7.034;2022-09-03T03:13:55;15.30;99.90
31597;DHT22;18201;50.978;7.034;2022-09-03T03:14:58;15.30;99.90
31597;DHT22;18201;50.978;7.034;2022-09-03T03:16:00;15.30;99.90
31597;DHT22;18201;50.978;7.034;2022-09-03T03:17:02;15.30;99.90
31597;DHT22;18201;50.978;7.034;2022-09-03T03:18:05;15.30;99.90
31597;DHT22;18201;50.978;7.034;2022-09-03T03:19:07;15.30;99.90
31597;DHT22;18201;50.978;7.034;2022-09-03T03:20:09;15.30;99.90
31597;DHT22;18201;50.978;7.034;2022-09-03T03:21:12;15.30;99.90
31597;DHT22;18201;50.978;7.034;2022-09-03T03:22:13;15.30;99.90
31597;DHT22;18201;50.978;7.034;2022-09-03T03:23:15;15.30;99.90
31597;DHT22;18201;50.978;7.034;2022-09-03T03:24:16;15.30;99.90
31597;DHT22;18201;50.978;7.034;2022-09-03T03:25:18;15.20;99.90
31597;DHT22;18201;50.978;7.034;2022-09-03T03:26:20;15.30;99.90
31597;DHT22;18201;50.978;7.034;2022-09-03T03:27:23;15.20;99.90
31597;DHT22;18201;50.978;7.034;2022-09-03T03:28:25;15.20;99.90
31597;DHT22;18201;50.978;7.034;2022-09-03T03:29:27;15.20;99.90
31597;DHT22;18201;50.978;7.034;2022-09-03T03:30:30;15.30;99.90
31597;DHT22;18201;50.978;7.034;2022-09-03T03:31:32;15.30;99.90
31597;DHT22;18201;50.978;7.034;2022-09-03T03:32:34;15.20;99.90
31597;DHT22;18201;50.978;7.034;2022-09-03T03:33:36;15.20;99.90
31597;DHT22;18201;50.978;7.034;2022-09-03T03:34:38;15.20;99.90
31597;DHT22;18201;50.978;7.034;2022-09-03T03:35:40;15.20;99.90
31597;DHT22;18201;50.978;7.034;2022-09-03T03:36:42;15.20;99.90
31597;DHT22;18201;50.978;7.034;2022-09-03T03:37:44;15.20;99.90
31597;DHT22;18201;50.978;7.034;2022-09-03T03:38:45;15.20;99.90
31597;DHT22;18201;50.978;7.034;2022-09-03T03:39:47;15.20;99.90
31597;DHT22;18201;50.978;7.034;2022-09-03T03:40:48;15.20;99.90
31597;DHT22;18201;50.978;7.034;2022-09-03T03:41:50;15.20;99.90
31597;DHT22;18201;50.978;7.034;2022-09-03T03:42:52;15.20;99.90
31597;DHT22;18201;50.978;7.034;2022-09-03T03:43:55;15.20;99.90
31597;DHT22;18201;50.978;7.034;2022-09-03T03:44:56;15.20;99.90
31597;DHT22;18201;50.978;7.034;2022-09-03T03:45:58;15.20;99.90
31597;DHT22;18201;50.978;7.034;2022-09-03T03:46:59;15.20;99.90
31597;DHT22;18201;50.978;7.034;2022-09-03T03:48:01;15.10;99.90
31597;DHT22;18201;50.978;7.034;2022-09-03T03:49:04;15.20;99.90
31597;DHT22;18201;50.978;7.034;2022-09-03T03:50:07;15.20;99.90
31597;DHT22;18201;50.978;7.034;2022-09-03T03:51:09;15.10;99.90
31597;DHT22;18201;50.978;7.034;2022-09-03T03:52:11;15.20;99.90
31597;DHT22;18201;50.978;7.034;2022-09-03T03:53:12;15.20;99.90
31597;DHT22;18201;50.978;7.034;2022-09-03T03:54:14;15.20;99.90
31597;DHT22;18201;50.978;7.034;2022-09-03T03:55:15;15.10;99.90
31597;DHT22;18201;50.978;7.034;2022-09-03T03:56:17;15.10;99.90
31597;DHT22;18201;50.978;7.034;2022-09-03T03:57:18;15.10;99.90
31597;DHT22;18201;50.978;7.034;2022-09-03T03:58:20;15.10;99.90
31597;DHT22;18201;50.978;7.034;2022-09-03T03:59:21;15.20;99.90
31597;DHT22;18201;50.978;7.034;2022-09-03T04:00:23;15.10;99.90
31597;DHT22;18201;50.978;7.034;2022-09-03T04:01:25;15.10;99.90
31597;DHT22;18201;50.978;7.034;2022-09-03T04:02:27;15.10;99.90
31597;DHT22;18201;50.978;7.034;2022-09-03T04:03:28;15.10;99.90
31597;DHT22;18201;50.978;7.034;2022-09-03T04:04:32;15.10;99.90
31597;DHT22;18201;50.978;7.034;2022-09-03T04:05:34;15.10;99.90
31597;DHT22;18201;50.978;7.034;2022-09-03T04:06:35;15.10;99.90
31597;DHT22;18201;50.978;7.034;2022-09-03T04:07:36;15.10;99.90
31597;DHT22;18201;50.978;7.034;2022-09-03T04:08:39;15.10;99.90
31597;DHT22;18201;50.978;7.034;2022-09-03T04:09:41;15.10;99.90
31597;DHT22;18201;50.978;7.034;2022-09-03T04:10:42;15.10;99.90
31597;DHT22;18201;50.978;7.034;2022-09-03T04:11:44;15.10;99.90
31597;DHT22;18201;50.978;7.034;2022-09-03T04:12:45;15.10;99.90
31597;DHT22;18201;50.978;7.034;2022-09-03T04:13:47;15.10;99.90
31597;DHT22;18201;50.978;7.034;2022-09-03T04:14:48;15.10;99.90
31597;DHT22;18201;50.978;7.034;2022-09-03T04:15:50;15.10;99.90
31597;DHT22;18201;50.978;7.034;2022-09-03T04:16:53;15.10;99.90
31597;DHT22;18201;50.978;7.034;2022-09-03T04:17:56;15.10;99.90
31597;DHT22;18201;50.978;7.034;2022-09-03T04:18:57;15.10;99.90
31597;DHT22;18201;50.978;7.034;2022-09-03T04:20:01;15.10;99.90
31597;DHT22;18201;50.978;7.034;2022-09-03T04:21:04;15.10;99.90
31597;DHT22;18201;50.978;7.034;2022-09-03T04:22:06;15.10;99.90
31597;DHT22;18201;50.978;7.034;2022-09-03T04:23:07;15.10;99.90
31597;DHT22;18201;50.978;7.034;2022-09-03T04:24:09;15.10;99.90
31597;DHT22;18201;50.978;7.034;2022-09-03T04:25:10;15.10;99.90
31597;DHT22;18201;50.978;7.034;2022-09-03T04:26:14;15.10;99.90
31597;DHT22;18201;50.978;7.034;2022-09-03T04:27:15;15.10;99.90
31597;DHT22;18201;50.978;7.034;2022-09-03T04:28:16;15.10;99.90
31597;DHT22;18201;50.978;7.034;2022-09-03T04:29:17;15.10;99.90
31597;DHT22;18201;50.978;7.034;2022-09-03T04:30:21;15.10;99.90
31597;DHT22;18201;50.978;7.034;2022-09-03T04:31:22;15.10;99.90
31597;DHT22;18201;50.978;7.034;2022-09-03T04:32:24;15.20;99.90
31597;DHT22;18201;50.978;7.034;2022-09-03T04:33:44;15.20;99.90
31597;DHT22;18201;50.978;7.034;2022-09-03T04:34:46;15.20;99.90
31597;DHT22;18201;50.978;7.034;2022-09-03T04:35:48;15.20;99.90
31597;DHT22;18201;50.978;7.034;2022-09-03T04:36:50;15.20;99.90
31597;DHT22;18201;50.978;7.034;2022-09-03T04:37:51;15.20;99.90
31597;DHT22;18201;50.978;7.034;2022-09-03T04:38:57;15.10;99.90
31597;DHT22;18201;50.978;7.034;2022-09-03T04:39:59;15.20;99.90
31597;DHT22;18201;50.978;7.034;2022-09-03T04:41:02;15.20;99.90
31597;DHT22;18201;50.978;7.034;2022-09-03T04:42:04;15.20;99.90
31597;DHT22;18201;50.978;7.034;2022-09-03T04:43:05;15.20;99.90
31597;DHT22;18201;50.978;7.034;2022-09-03T04:44:07;15.20;99.90
31597;DHT22;18201;50.978;7.034;2022-09-03T04:45:09;15.20;99.90
31597;DHT22;18201;50.978;7.034;2022-09-03T04:46:12;15.20;99.90
31597;DHT22;18201;50.978;7.034;2022-09-03T04:47:14;15.20;99.90
31597;DHT22;18201;50.978;7.034;2022-09-03T04:48:15;15.20;99.90
31597;DHT22;18201;50.978;7.034;2022-09-03T04:49:17;15.20;99.90
31597;DHT22;18201;50.978;7.034;2022-09-03T04:50:19;15.20;99.90
31597;DHT22;18201;50.978;7.034;2022-09-03T04:51:24;15.20;99.90
31597;DHT22;18201;50.978;7.034;2022-09-03T04:52:27;15.20;99.90
31597;DHT22;18201;50.978;7.034;2022-09-03T04:53:31;15.20;99.90
31597;DHT22;18201;50.978;7.034;2022-09-03T04:54:32;15.30;99.90
31597;DHT22;18201;50.978;7.034;2022-09-03T04:55:36;15.30;99.90
31597;DHT22;18201;50.978;7.034;2022-09-03T04:56:38;15.30;99.90
31597;DHT22;18201;50.978;7.034;2022-09-03T04:57:41;15.20;99.90
31597;DHT22;18201;50.978;7.034;2022-09-03T04:58:42;15.30;99.90
31597;DHT22;18201;50.978;7.034;2022-09-03T04:59:44;15.20;99.90
31597;DHT22;18201;50.978;7.034;2022-09-03T05:00:45;15.20;99.90
31597;DHT22;18201;50.978;7.034;2022-09-03T05:01:47;15.30;99.90
31597;DHT22;18201;50.978;7.034;2022-09-03T05:02:48;15.30;99.90
31597;DHT22;18201;50.978;7.034;2022-09-03T05:03:51;15.30;99.90
31597;DHT22;18201;50.978;7.034;2022-09-03T05:04:52;15.20;99.90
31597;DHT22;18201;50.978;7.034;2022-09-03T05:05:54;15.30;99.90
31597;DHT22;18201;50.978;7.034;2022-09-03T05:06:57;15.20;99.90
31597;DHT22;18201;50.978;7.034;2022-09-03T05:07:59;15.30;99.90
31597;DHT22;18201;50.978;7.034;2022-09-03T05:09:01;15.30;99.90
31597;DHT22;18201;50.978;7.034;2022-09-03T05:10:05;15.30;99.90
31597;DHT22;18201;50.978;7.034;2022-09-03T05:11:07;15.30;99.90
31597;DHT22;18201;50.978;7.034;2022-09-03T05:12:08;15.30;99.90
31597;DHT22;18201;50.978;7.034;2022-09-03T05:13:10;15.30;99.90
31597;DHT22;18201;50.978;7.034;2022-09-03T05:14:12;15.30;99.90
31597;DHT22;18201;50.978;7.034;2022-09-03T05:15:13;15.30;99.90
31597;DHT22;18201;50.978;7.034;2022-09-03T05:16:17;15.40;99.90
31597;DHT22;18201;50.978;7.034;2022-09-03T05:17:18;15.40;99.90
31597;DHT22;18201;50.978;7.034;2022-09-03T05:18:20;15.40;99.90
31597;DHT22;18201;50.978;7.034;2022-09-03T05:19:21;15.40;99.90
31597;DHT22;18201;50.978;7.034;2022-09-03T05:20:23;15.40;99.90
31597;DHT22;18201;50.978;7.034;2022-09-03T05:21:25;15.50;99.90
31597;DHT22;18201;50.978;7.034;2022-09-03T05:22:28;15.50;99.90
31597;DHT22;18201;50.978;7.034;2022-09-03T05:23:30;15.50;99.90
31597;DHT22;18201;50.978;7.034;2022-09-03T05:24:32;15.50;99.90
31597;DHT22;18201;50.978;7.034;2022-09-03T05:25:33;15.60;99.90
31597;DHT22;18201;50.978;7.034;2022-09-03T05:26:38;15.60;99.90
31597;DHT22;18201;50.978;7.034;2022-09-03T05:27:40;15.60;99.90
31597;DHT22;18201;50.978;7.034;2022-09-03T05:28:43;15.60;99.90
31597;DHT22;18201;50.978;7.034;2022-09-03T05:29:45;15.70;99.90
31597;DHT22;18201;50.978;7.034;2022-09-03T05:30:46;15.70;99.90
31597;DHT22;18201;50.978;7.034;2022-09-03T05:31:48;15.70;99.90
31597;DHT22;18201;50.978;7.034;2022-09-03T05:32:49;15.80;99.90
31597;DHT22;18201;50.978;7.034;2022-09-03T05:33:52;15.80;99.90
31597;DHT22;18201;50.978;7.034;2022-09-03T05:34:54;15.80;99.90
31597;DHT22;18201;50.978;7.034;2022-09-03T05:36:00;15.80;99.90
31597;DHT22;18201;50.978;7.034;2022-09-03T05:37:01;15.80;99.90
31597;DHT22;18201;50.978;7.034;2022-09-03T05:38:04;15.90;99.90
31597;DHT22;18201;50.978;7.034;2022-09-03T05:39:06;15.90;99.90
31597;DHT22;18201;50.978;7.034;2022-09-03T05:40:09;16.00;99.90
31597;DHT22;18201;50.978;7.034;2022-09-03T05:41:12;15.90;99.90
31597;DHT22;18201;50.978;7.034;2022-09-03T05:42:15;16.00;99.90
31597;DHT22;18201;50.978;7.034;2022-09-03T05:43:16;16.00;99.90
31597;DHT22;18201;50.978;7.034;2022-09-03T05:44:18;16.00;99.90
31597;DHT22;18201;50.978;7.034;2022-09-03T05:45:20;16.10;99.90
31597;DHT22;18201;50.978;7.034;2022-09-03T05:46:25;16.10;99.90
31597;DHT22;18201;50.978;7.034;2022-09-03T05:47:30;16.10;99.90
31597;DHT22;18201;50.978;7.034;2022-09-03T05:48:35;16.10;99.90
31597;DHT22;18201;50.978;7.034;2022-09-03T05:49:36;16.10;99.90
31597;DHT22;18201;50.978;7.034;2022-09-03T05:50:38;16.10;99.90
31597;DHT22;18201;50.978;7.034;2022-09-03T05:51:39;16.10;99.90
31597;DHT22;18201;50.978;7.034;2022-09-03T05:52:42;16.20;99.90
31597;DHT22;18201;50.978;7.034;2022-09-03T05:53:45;16.20;99.90
31597;DHT22;18201;50.978;7.034;2022-09-03T05:54:47;16.20;99.90
31597;DHT22;18201;50.978;7.034;2022-09-03T05:55:54;16.20;99.90
31597;DHT22;18201;50.978;7.034;2022-09-03T05:56:55;16.20;99.90
31597;DHT22;18201;50.978;7.034;2022-09-03T05:57:57;16.30;99.90
31597;DHT22;18201;50.978;7.034;2022-09-03T05:58:59;16.30;99.90
31597;DHT22;18201;50.978;7.034;2022-09-03T06:00:03;16.30;99.90
31597;DHT22;18201;50.978;7.034;2022-09-03T06:01:09;16.30;99.90
31597;DHT22;18201;50.978;7.034;2022-09-03T06:02:11;16.40;99.90
31597;DHT22;18201;50.978;7.034;2022-09-03T06:03:13;16.40;99.90
31597;DHT22;18201;50.978;7.034;2022-09-03T06:04:15;16.50;99.90
31597;DHT22;18201;50.978;7.034;2022-09-03T06:05:17;16.50;99.90
31597;DHT22;18201;50.978;7.034;2022-09-03T06:06:19;16.50;99.90
31597;DHT22;18201;50.978;7.034;2022-09-03T06:07:25;16.50;99.90
31597;DHT22;18201;50.978;7.034;2022-09-03T06:08:26;16.50;99.90
31597;DHT22;18201;50.978;7.034;2022-09-03T06:09:30;16.60;99.90
31597;DHT22;18201;50.978;7.034;2022-09-03T06:10:31;16.60;99.90
31597;DHT22;18201;50.978;7.034;2022-09-03T06:11:34;16.60;99.90
31597;DHT22;18201;50.978;7.034;2022-09-03T06:12:37;16.60;99.90
31597;DHT22;18201;50.978;7.034;2022-09-03T06:13:38;16.60;99.90
31597;DHT22;18201;50.978;7.034;2022-09-03T06:14:40;16.70;99.90
31597;DHT22;18201;50.978;7.034;2022-09-03T06:15:42;16.70;99.90
31597;DHT22;18201;50.978;7.034;2022-09-03T06:16:45;16.70;99.90
31597;DHT22;18201;50.978;7.034;2022-09-03T06:17:48;16.70;99.90
31597;DHT22;18201;50.978;7.034;2022-09-03T06:18:50;16.80;99.90
31597;DHT22;18201;50.978;7.034;2022-09-03T06:19:52;16.80;99.90
31597;DHT22;18201;50.978;7.034;2022-09-03T06:20:56;16.80;99.90
31597;DHT22;18201;50.978;7.034;2022-09-03T06:22:00;16.80;99.90
31597;DHT22;18201;50.978;7.034;2022-09-03T06:23:00;16.80;99.90
31597;DHT22;18201;50.978;7.034;2022-09-03T06:24:03;16.80;99.90
31597;DHT22;18201;50.978;7.034;2022-09-03T06:25:06;16.90;99.90
31597;DHT22;18201;50.978;7.034;2022-09-03T06:26:12;17.00;99.90
31597;DHT22;18201;50.978;7.034;2022-09-03T06:27:21;17.00;99.90
31597;DHT22;18201;50.978;7.034;2022-09-03T06:28:25;17.00;99.90
31597;DHT22;18201;50.978;7.034;2022-09-03T06:29:29;17.00;99.90
31597;DHT22;18201;50.978;7.034;2022-09-03T06:30:31;17.00;99.90
31597;DHT22;18201;50.978;7.034;2022-09-03T06:31:32;17.00;99.90
31597;DHT22;18201;50.978;7.034;2022-09-03T06:32:42;17.00;99.90
31597;DHT22;18201;50.978;7.034;2022-09-03T06:33:48;17.10;99.90
31597;DHT22;18201;50.978;7.034;2022-09-03T06:34:57;17.10;99.90
31597;DHT22;18201;50.978;7.034;2022-09-03T06:36:00;17.20;99.90
31597;DHT22;18201;50.978;7.034;2022-09-03T06:37:06;17.20;99.90
31597;DHT22;18201;50.978;7.034;2022-09-03T06:38:07;17.20;99.90
31597;DHT22;18201;50.978;7.034;2022-09-03T06:39:12;17.30;99.90
31597;DHT22;18201;50.978;7.034;2022-09-03T06:40:24;17.30;99.90
31597;DHT22;18201;50.978;7.034;2022-09-03T06:41:27;17.30;99.90
31597;DHT22;18201;50.978;7.034;2022-09-03T06:42:32;17.40;99.90
31597;DHT22;18201;50.978;7.034;2022-09-03T06:43:40;17.50;99.90
31597;DHT22;18201;50.978;7.034;2022-09-03T06:44:48;17.50;99.90
31597;DHT22;18201;50.978;7.034;2022-09-03T06:45:55;17.50;99.90
31597;DHT22;18201;50.978;7.034;2022-09-03T06:46:59;17.50;99.90
31597;DHT22;18201;50.978;7.034;2022-09-03T06:48:03;17.60;99.90
31597;DHT22;18201;50.978;7.034;2022-09-03T06:49:08;17.60;99.90
31597;DHT22;18201;50.978;7.034;2022-09-03T06:50:10;17.60;99.90
31597;DHT22;18201;50.978;7.034;2022-09-03T06:51:14;17.70;99.90
31597;DHT22;18201;50.978;7.034;2022-09-03T06:52:17;17.80;99.90
31597;DHT22;18201;50.978;7.034;2022-09-03T06:53:18;17.80;99.90
31597;DHT22;18201;50.978;7.034;2022-09-03T06:54:19;17.90;99.90
31597;DHT22;18201;50.978;7.034;2022-09-03T06:55:24;17.90;99.90
31597;DHT22;18201;50.978;7.034;2022-09-03T06:56:25;17.90;99.90
31597;DHT22;18201;50.978;7.034;2022-09-03T06:57:27;17.90;99.90
31597;DHT22;18201;50.978;7.034;2022-09-03T06:58:30;18.00;99.90
31597;DHT22;18201;50.978;7.034;2022-09-03T06:59:32;18.00;99.90
31597;DHT22;18201;50.978;7.034;2022-09-03T07:00:34;18.00;99.90
31597;DHT22;18201;50.978;7.034;2022-09-03T07:01:35;18.10;99.90
31597;DHT22;18201;50.978;7.034;2022-09-03T07:02:40;18.10;99.90
31597;DHT22;18201;50.978;7.034;2022-09-03T07:03:42;18.10;99.90
31597;DHT22;18201;50.978;7.034;2022-09-03T07:04:44;18.10;99.90
31597;DHT22;18201;50.978;7.034;2022-09-03T07:05:46;18.20;99.90
31597;DHT22;18201;50.978;7.034;2022-09-03T07:06:47;18.20;99.90
31597;DHT22;18201;50.978;7.034;2022-09-03T07:07:49;18.20;99.90
31597;DHT22;18201;50.978;7.034;2022-09-03T07:08:50;18.30;99.90
31597;DHT22;18201;50.978;7.034;2022-09-03T07:09:52;18.30;99.90
31597;DHT22;18201;50.978;7.034;2022-09-03T07:10:54;18.40;99.90
31597;DHT22;18201;50.978;7.034;2022-09-03T07:11:56;18.40;99.90
31597;DHT22;18201;50.978;7.034;2022-09-03T07:12:58;18.40;99.90
31597;DHT22;18201;50.978;7.034;2022-09-03T07:13:59;18.50;99.90
31597;DHT22;18201;50.978;7.034;2022-09-03T07:15:01;18.40;99.90
31597;DHT22;18201;50.978;7.034;2022-09-03T07:16:04;18.50;99.90
31597;DHT22;18201;50.978;7.034;2022-09-03T07:17:06;18.60;99.90
31597;DHT22;18201;50.978;7.034;2022-09-03T07:18:08;18.60;99.90
31597;DHT22;18201;50.978;7.034;2022-09-03T07:19:09;18.60;99.90
31597;DHT22;18201;50.978;7.034;2022-09-03T07:20:12;18.70;99.90
31597;DHT22;18201;50.978;7.034;2022-09-03T07:21:15;18.70;99.90
31597;DHT22;18201;50.978;7.034;2022-09-03T07:22:17;18.80;99.90
31597;DHT22;18201;50.978;7.034;2022-09-03T07:23:17;18.90;99.90
31597;DHT22;18201;50.978;7.034;2022-09-03T07:24:20;18.90;99.90
31597;DHT22;18201;50.978;7.034;2022-09-03T07:25:22;18.90;99.90
31597;DHT22;18201;50.978;7.034;2022-09-03T07:26:27;19.00;99.90